Letzte erfasste Runde: - - - -
Platz Datum Fahrer Zeit Diff S1 S2 S3 Fahrzeug Session Runden
- - Theoretische Bestzeit 1:28.799 - 20.492 34.920 33.387 - - -
1 08.12.2021 Lukas Mueller 1:28.955 - 20.492 35.075 33.387 Porsche 991.2 GT3 Cup Race 73
2 15.12.2021 Nick Balzar 1:28.977 0.022 20.647 34.920 33.410 Porsche 991.2 GT3 Cup Race 31
3 08.12.2021 Felix Arndt 1:29.937 0.982 20.702 35.345 33.890 Porsche 991.2 GT3 Cup Race 32
4 15.12.2021 Goe Stettler 1:30.175 1.220 20.767 35.350 34.057 Porsche 991.2 GT3 Cup Race 68
5 15.12.2021 Daniel Ehrlich 1:30.260 1.305 20.855 35.415 33.990 Porsche 991.2 GT3 Cup Race 69
6 15.12.2021 Adi Stettler 1:30.407 1.452 20.922 35.322 34.162 Porsche 991.2 GT3 Cup Race 73
7 15.12.2021 Joe Dawber 1:30.565 1.610 20.722 35.640 34.202 Porsche 991.2 GT3 Cup Race 29
8 15.12.2021 Dennis Hillmann 1:30.620 1.665 20.820 35.522 34.277 Porsche 991.2 GT3 Cup Race 45
9 15.12.2021 Oliver Kern 1:30.705 1.750 20.932 35.577 34.195 Porsche 991.2 GT3 Cup Race 35
10 15.12.2021 Kristian Wuermeling 1:30.760 1.805 20.927 35.677 34.155 Porsche 991.2 GT3 Cup Race 13
11 15.12.2021 Luka Svirkov 1:30.917 1.962 20.907 35.917 34.092 Porsche 991.2 GT3 Cup Race 14
12 15.12.2021 Niklas Bareuther 1:30.932 1.977 21.082 35.725 34.125 Porsche 991.2 GT3 Cup Race 32
13 15.12.2021 Michael Sengs 1:31.037 2.082 20.840 35.850 34.347 Porsche 991.2 GT3 Cup Race 24
14 15.12.2021 Albert Gorocz 1:31.065 2.110 20.925 35.782 34.357 Porsche 991.2 GT3 Cup Race 29
15 15.12.2021 Deivid Mötz 1:31.135 2.180 21.017 35.992 34.125 Porsche 991.2 GT3 Cup Race 8
16 15.12.2021 Heiko Schmiedeberg 1:31.415 2.460 20.817 35.712 34.885 Porsche 991.2 GT3 Cup Race 7
17 15.12.2021 Endika Vázquez 1:32.025 3.070 21.012 35.987 35.025 Porsche 991.2 GT3 Cup Race 30
18 15.12.2021 Florian Becker 1:34.192 5.237 21.970 37.112 35.110 Porsche 718 Cayman GT4 Clubsport MR Race 59
19 15.12.2021 Max Schwanke 1:34.310 5.355 21.912 37.372 35.025 Porsche 718 Cayman GT4 Clubsport MR Race 47
20 15.12.2021 Luis Roters 1:34.415 5.460 21.977 37.167 35.270 Porsche 718 Cayman GT4 Clubsport MR Race 28
21 15.12.2021 Maximilian Severin 1:34.445 5.490 22.037 37.032 35.375 Porsche 718 Cayman GT4 Clubsport MR Race 32
22 15.12.2021 Daniel Dressel 1:34.457 5.502 21.887 37.060 35.510 Porsche 718 Cayman GT4 Clubsport MR Race 51
23 15.12.2021 Jan-Erik Tügel 1:34.517 5.562 21.980 37.245 35.292 Porsche 718 Cayman GT4 Clubsport MR Race 37
24 15.12.2021 Tobias Fleischmann 1:34.522 5.567 22.110 37.110 35.302 Porsche 718 Cayman GT4 Clubsport MR Race 35
25 15.12.2021 Richard Lindhorst 1:34.575 5.620 21.967 37.367 35.240 Porsche 718 Cayman GT4 Clubsport MR Race 27
26 15.12.2021 Christian Nesmiyan 1:34.582 5.627 21.882 37.365 35.335 Porsche 718 Cayman GT4 Clubsport MR Race 49
27 15.12.2021 Patrick Kreutz 1:34.627 5.672 22.180 37.277 35.170 Porsche 718 Cayman GT4 Clubsport MR Race 29
28 15.12.2021 Gabriel Fürstner 1:34.837 5.882 22.085 37.425 35.327 Porsche 718 Cayman GT4 Clubsport MR Race 59
29 15.12.2021 Dennis Manojlovic 1:34.975 6.020 22.040 37.267 35.667 Porsche 718 Cayman GT4 Clubsport MR Race 58
30 15.12.2021 Mark Reinhard 1:35.275 6.320 22.132 37.317 35.825 Porsche 718 Cayman GT4 Clubsport MR Race 26
31 15.12.2021 Ferenc Nagy 1:35.285 6.330 22.225 37.415 35.645 Porsche 718 Cayman GT4 Clubsport MR Race 50
32 15.12.2021 Ralf Waldek 1:35.332 6.377 22.225 37.620 35.487 Porsche 718 Cayman GT4 Clubsport MR Race 39
33 15.12.2021 Stefan Dressel 1:35.350 6.395 22.227 37.492 35.630 Porsche 718 Cayman GT4 Clubsport MR Race 48
34 15.12.2021 René Patzer 1:35.772 6.817 22.237 37.585 35.950 Porsche 718 Cayman GT4 Clubsport MR Race 21
35 15.12.2021 Dennis Grzelak 1:36.570 7.615 22.105 38.140 36.325 Porsche 718 Cayman GT4 Clubsport MR Race 19
36 15.12.2021 Florian Weiss 1:37.280 8.325 22.672 37.930 36.677 Porsche 718 Cayman GT4 Clubsport MR Race 2
37 15.12.2021 Jörg Sulies 1:37.380 8.425 22.372 38.567 36.440 Porsche 718 Cayman GT4 Clubsport MR Race 29
38 15.12.2021 Daniel Rabenstein 1:37.687 8.732 22.482 38.555 36.650 Porsche 718 Cayman GT4 Clubsport MR Race 16
39 15.12.2021 Leon Strunk 1:37.890 8.935 22.507 38.262 37.120 Porsche 718 Cayman GT4 Clubsport MR Race 20
40 24.07.2022 Leon Harhoff 1:40.065 11.110 23.275 39.577 37.212 BMW M2 CS Racing Race 21
41 24.07.2022 Leon Augustat 1:40.285 11.330 23.385 39.427 37.472 BMW M2 CS Racing Race 18
42 24.07.2022 Bernhard Schwab 1:41.140 12.185 23.550 39.700 37.890 BMW M2 CS Racing Race 13
43 24.07.2022 Marcel Kühnel 1:41.210 12.255 23.410 40.035 37.765 BMW M2 CS Racing Race 26
44 24.07.2022 Michael Klose 1:41.442 12.487 23.450 39.987 38.005 BMW M2 CS Racing Race 25
45 24.07.2022 Arnold Hausmann 1:41.540 12.585 23.380 40.375 37.785 BMW M2 CS Racing Race 21
46 24.07.2022 Alex Tullius 1:41.560 12.605 23.742 39.930 37.887 BMW M2 CS Racing Race 23
47 24.07.2022 Sebastian Ponath 1:41.860 12.905 23.555 40.310 37.995 BMW M2 CS Racing Race 19
48 24.07.2022 Huck Norbert 1:42.047 13.092 23.715 40.385 37.947 BMW M2 CS Racing Race 18
49 24.07.2022 Rico Eichhorn 1:42.450 13.495 23.572 40.425 38.452 BMW M2 CS Racing Race 18
50 24.07.2022 Andreas Wagner 1:42.950 13.995 23.750 40.620 38.580 BMW M2 CS Racing Race 16

SERVER

0 / 61
virtualracing.org #1 GTM
Training 1Lime Rock Park -- Uphill Chicane
0 / 81
virtualracing.org #3 FS
Training 1Lime Rock Park -- Uphill Chicane
0 / 81
virtualracing.org #4 LSM
Training 1Spa-Francorchamps Endurance
0 / 34
virtualracing.org #5 VRF1S
Training 1Barcelona 2021
0 / 34
virtualracing.org #6 VRCS
Training 1Donington Park National Circuit
0 / 81
virtualracing.org #P1 BTCC
Training 1Donington National
0 / 81
virtualracing.org #P2 CA
Training 1Oulton Park Fosters
0 / 34
virtualracing.org #P3 Mini
Training 1Brands Hatch Indy
0 / 33
virtualracing.org #P4 IR18
Training 1Sebring -- School
0 / 104
virtualracing.org VRES L
TesttagNuerburgring -- rF2LN 24h
1 / 104
virtualracing.org VRES T
TesttagNuerburgring -- rF2LN 24h
0/31
virtualracing.org#4 GTC Training Standard
TrainingCircuito de Jerez - GP
0/31
virtualracing.org#5 GTC Training A
TrainingDaytona International Speedway - Road Course
0/16
virtualracing.org#30 ALT Training
Trainingaa_dover_speedway-nh